createdAt,value
2022-08-24T00:00:45.727Z,81.21
2022-08-24T00:03:13.512Z,81.87
2022-08-24T00:05:41.345Z,82.51
2022-08-24T00:08:09.024Z,82.56
2022-08-24T00:10:37.617Z,82.46
2022-08-24T00:13:05.261Z,82.25
2022-08-24T00:15:34.082Z,82.53
2022-08-24T00:18:03.249Z,83.83
2022-08-24T00:20:31.218Z,83.25
2022-08-24T00:22:59.135Z,83.14
2022-08-24T00:25:27.823Z,83.43
2022-08-24T00:27:55.490Z,84.39
2022-08-24T00:30:23.918Z,84.21
2022-08-24T00:32:51.845Z,83.78
2022-08-24T00:35:21.562Z,83.32
2022-08-24T00:37:51.058Z,83.76
2022-08-24T00:40:23.636Z,83.85
2022-08-24T00:42:51.672Z,83.92
2022-08-24T00:45:20.611Z,84.58
2022-08-24T00:47:52.804Z,84.17
2022-08-24T00:50:30.848Z,84.10
2022-08-24T00:53:02.815Z,83.88
2022-08-24T00:55:34.127Z,83.77
2022-08-24T00:58:05.097Z,83.66
2022-08-24T01:00:38.393Z,83.98
2022-08-24T01:03:07.579Z,83.43
2022-08-24T01:05:38.858Z,83.11
2022-08-24T01:08:10.080Z,83.05
2022-08-24T01:10:42.714Z,83.32
2022-08-24T01:13:12.558Z,83.13
2022-08-24T01:15:43.539Z,83.17
2022-08-24T01:18:32.935Z,83.33
2022-08-24T01:21:07.545Z,83.02
2022-08-24T01:23:40.268Z,83.17
2022-08-24T01:26:11.849Z,83.11
2022-08-24T01:28:44.150Z,82.94
2022-08-24T01:31:13.041Z,83.31
2022-08-24T01:33:41.177Z,83.49
2022-08-24T01:36:16.539Z,83.55
2022-08-24T01:38:46.383Z,83.74
2022-08-24T01:41:14.794Z,83.49
2022-08-24T01:43:42.562Z,82.86
2022-08-24T01:46:11.199Z,82.76
2022-08-24T01:48:39.828Z,83.40
2022-08-24T01:51:07.972Z,83.93
2022-08-24T01:53:35.658Z,84.33
2022-08-24T01:56:06.045Z,84.41
2022-08-24T01:58:35.018Z,84.32
2022-08-24T02:01:03.102Z,84.19
2022-08-24T02:03:31.083Z,84.07
2022-08-24T02:06:00.439Z,83.78
2022-08-24T02:08:29.483Z,83.76
2022-08-24T02:10:58.088Z,83.70
2022-08-24T02:13:28.637Z,83.58
2022-08-24T02:15:56.377Z,83.48
2022-08-24T02:18:24.092Z,83.58
2022-08-24T02:20:53.225Z,83.87
2022-08-24T02:23:22.396Z,83.75
2022-08-24T02:25:51.166Z,83.80
2022-08-24T02:28:20.203Z,83.73
2022-08-24T02:30:50.853Z,83.92
2022-08-24T02:33:18.879Z,84.10
2022-08-24T02:35:47.086Z,84.04
2022-08-24T02:38:15.127Z,83.94
2022-08-24T02:40:43.302Z,83.98
2022-08-24T02:43:11.495Z,84.03
2022-08-24T02:45:40.824Z,83.94
2022-08-24T02:48:10.584Z,84.04
2022-08-24T02:50:40.698Z,83.78
2022-08-24T02:53:08.588Z,83.56
2022-08-24T02:55:39.341Z,83.52
2022-08-24T02:58:07.395Z,83.18
2022-08-24T03:00:38.454Z,83.31
2022-08-24T03:03:07.639Z,83.32
2022-08-24T03:05:38.690Z,83.08
2022-08-24T03:08:07.109Z,83.09
2022-08-24T03:10:36.815Z,82.79
2022-08-24T03:13:05.416Z,82.89
2022-08-24T03:15:33.562Z,82.68
2022-08-24T03:18:02.741Z,82.81
2022-08-24T03:20:31.883Z,82.86
2022-08-24T03:23:01.501Z,82.99
2022-08-24T03:25:29.650Z,83.14
2022-08-24T03:27:57.788Z,82.91
2022-08-24T03:30:26.718Z,82.96
2022-08-24T03:32:55.087Z,82.86
2022-08-24T03:35:22.938Z,82.54
2022-08-24T03:37:50.959Z,82.55
2022-08-24T03:40:24.543Z,82.53
2022-08-24T03:42:56.948Z,82.22
2022-08-24T03:45:25.074Z,82.16
2022-08-24T03:47:53.502Z,82.30
2022-08-24T03:50:22.645Z,82.17
2022-08-24T03:52:51.980Z,81.64
2022-08-24T03:55:21.760Z,82.30
2022-08-24T03:57:49.978Z,82.57
2022-08-24T04:00:18.117Z,82.85
2022-08-24T04:02:55.397Z,83.34
2022-08-24T04:05:25.575Z,83.47
2022-08-24T04:07:53.564Z,83.60
2022-08-24T04:10:22.552Z,83.53
2022-08-24T04:12:50.231Z,83.24
2022-08-24T04:15:25.145Z,83.66
2022-08-24T04:17:55.024Z,83.20
2022-08-24T04:20:24.087Z,82.53
2022-08-24T04:22:53.600Z,82.82
2022-08-24T04:25:25.245Z,82.87
2022-08-24T04:27:53.258Z,82.72
2022-08-24T04:30:22.911Z,83.24
2022-08-24T04:33:06.655Z,82.40
2022-08-24T04:35:38.613Z,82.61
2022-08-24T04:38:07.564Z,82.38
2022-08-24T04:40:40.287Z,82.57
2022-08-24T04:43:10.446Z,82.95
2022-08-24T04:45:39.997Z,83.16
2022-08-24T04:48:08.643Z,83.33
2022-08-24T04:50:36.920Z,83.32
2022-08-24T04:53:08.017Z,83.37
2022-08-24T04:55:44.877Z,83.28
2022-08-24T04:58:13.749Z,83.12
2022-08-24T05:00:41.661Z,82.87
2022-08-24T05:03:11.268Z,82.90
2022-08-24T05:05:41.641Z,82.45
2022-08-24T05:08:10.561Z,82.28
2022-08-24T05:10:41.299Z,82.03
2022-08-24T05:13:10.394Z,81.86
2022-08-24T05:15:42.268Z,81.73
2022-08-24T05:18:11.938Z,81.19
2022-08-24T05:20:41.198Z,81.79
2022-08-24T05:23:09.571Z,82.08
2022-08-24T05:25:38.801Z,81.75
2022-08-24T05:28:08.161Z,82.39
2022-08-24T05:30:40.614Z,82.80
2022-08-24T05:33:11.374Z,82.73
2022-08-24T05:35:39.701Z,82.57
2022-08-24T05:38:12.029Z,81.88
2022-08-24T05:40:39.721Z,81.62
2022-08-24T05:43:09.935Z,81.28
2022-08-24T05:45:37.655Z,81.23
2022-08-24T05:48:06.616Z,81.37
2022-08-24T05:51:00.451Z,81.52
2022-08-24T05:53:33.870Z,81.75
2022-08-24T05:56:05.475Z,81.59
2022-08-24T05:58:35.030Z,81.59
2022-08-24T06:01:08.234Z,81.51
2022-08-24T06:03:36.719Z,81.57
2022-08-24T06:06:08.741Z,81.50
2022-08-24T06:08:41.214Z,81.00
2022-08-24T06:11:11.097Z,80.66
2022-08-24T06:13:41.073Z,80.60
2022-08-24T06:16:21.592Z,80.51
2022-08-24T06:18:52.020Z,80.20
2022-08-24T06:21:23.219Z,80.11
2022-08-24T06:23:52.030Z,79.32
2022-08-24T06:26:39.053Z,79.27
2022-08-24T06:29:09.742Z,79.60
2022-08-24T06:31:46.855Z,79.13
2022-08-24T06:34:17.012Z,78.98
2022-08-24T06:36:45.419Z,78.67
2022-08-24T06:39:14.071Z,77.52
2022-08-24T06:41:46.223Z,77.24
2022-08-24T06:44:22.299Z,76.09
2022-08-24T06:47:00.046Z,75.35
2022-08-24T06:49:27.832Z,74.84
2022-08-24T06:51:56.711Z,74.38
2022-08-24T06:54:24.828Z,73.41
2022-08-24T06:56:52.760Z,72.67
2022-08-24T06:59:21.895Z,71.66
2022-08-24T07:01:49.655Z,70.91
2022-08-24T07:04:17.667Z,70.09
2022-08-24T07:07:24.362Z,70.15
2022-08-24T07:09:52.252Z,69.83
2022-08-24T07:12:20.912Z,69.72
2022-08-24T07:14:50.390Z,69.78
2022-08-24T07:17:19.419Z,70.13
2022-08-24T07:19:48.531Z,70.01
2022-08-24T07:22:30.795Z,70.12
2022-08-24T07:24:58.524Z,70.59
2022-08-24T07:27:28.177Z,67.81
2022-08-24T07:30:23.133Z,66.89
2022-08-24T07:32:45.374Z,67.11
2022-08-24T07:35:13.083Z,65.82
2022-08-24T07:37:41.688Z,65.56
2022-08-24T07:40:12.534Z,65.12
2022-08-24T07:42:40.824Z,65.33
2022-08-24T07:45:11.245Z,65.46
2022-08-24T07:47:45.377Z,65.13
2022-08-24T07:50:48.047Z,63.39
2022-08-24T07:53:20.696Z,63.03
2022-08-24T07:55:54.582Z,63.56
2022-08-24T07:58:24.567Z,61.65
2022-08-24T08:00:53.866Z,63.14
2022-08-24T08:03:23.396Z,62.42
2022-08-24T08:05:51.104Z,62.63
2022-08-24T08:08:20.229Z,61.61
2022-08-24T08:10:48.156Z,61.72
2022-08-24T08:13:16.404Z,61.40
2022-08-24T08:15:44.253Z,61.05
2022-08-24T08:18:14.662Z,60.22
2022-08-24T08:20:42.958Z,61.42
2022-08-24T08:23:30.022Z,60.27
2022-08-24T08:26:15.446Z,59.44
2022-08-24T08:28:52.968Z,57.30
2022-08-24T08:31:21.081Z,57.48
2022-08-24T08:33:51.554Z,57.82
2022-08-24T08:36:22.098Z,56.37
2022-08-24T08:38:51.596Z,55.71
2022-08-24T08:41:48.910Z,54.94
2022-08-24T08:44:37.261Z,55.92
2022-08-24T08:47:17.823Z,54.96
2022-08-24T08:50:06.402Z,54.33
2022-08-24T08:53:14.204Z,54.01
2022-08-24T08:55:46.020Z,54.38
2022-08-24T08:58:34.097Z,53.93
2022-08-24T09:01:10.510Z,54.08
2022-08-24T09:04:21.091Z,53.02
2022-08-24T09:07:12.679Z,53.32
2022-08-24T09:10:10.247Z,49.91
2022-08-24T09:12:54.959Z,49.21
2022-08-24T09:15:43.404Z,50.59
2022-08-24T09:18:24.849Z,51.18
2022-08-24T09:21:09.689Z,51.52
2022-08-24T09:23:54.059Z,50.75
2022-08-24T09:26:27.927Z,50.68
2022-08-24T09:29:11.120Z,50.11
2022-08-24T09:31:52.678Z,49.23
2022-08-24T09:34:34.451Z,48.49
2022-08-24T09:37:18.654Z,49.53
2022-08-24T09:40:01.940Z,48.94
2022-08-24T09:42:56.474Z,48.32
2022-08-24T09:45:52.429Z,49.81
2022-08-24T09:49:14.139Z,49.24
2022-08-24T09:52:15.907Z,47.05
2022-08-24T09:55:09.035Z,47.30
2022-08-24T09:58:05.140Z,46.84
2022-08-24T10:00:39.334Z,49.17
2022-08-24T10:03:25.313Z,47.32
2022-08-24T10:06:18.387Z,47.76
2022-08-24T10:09:12.336Z,47.98
2022-08-24T10:11:53.301Z,46.02
2022-08-24T10:14:42.111Z,46.30
2022-08-24T10:17:19.109Z,46.33
2022-08-24T10:20:04.266Z,46.23
2022-08-24T10:22:59.313Z,46.87
2022-08-24T10:25:35.101Z,46.39
2022-08-24T10:28:35.257Z,44.53
2022-08-24T10:31:12.542Z,45.25
2022-08-24T10:33:56.982Z,45.25
2022-08-24T10:36:41.202Z,45.15
2022-08-24T10:39:42.800Z,45.28
2022-08-24T10:42:58.433Z,44.58
2022-08-24T10:45:51.185Z,43.69
2022-08-24T10:48:47.242Z,44.02
2022-08-24T10:51:30.143Z,46.08
2022-08-24T10:53:59.117Z,45.09
2022-08-24T10:56:36.975Z,45.09
2022-08-24T10:59:19.206Z,44.88
2022-08-24T11:02:08.410Z,44.91
2022-08-24T11:04:41.567Z,44.83
2022-08-24T11:07:17.449Z,42.48
2022-08-24T11:09:49.355Z,44.93
2022-08-24T11:12:26.302Z,42.78
2022-08-24T11:14:55.532Z,42.99
2022-08-24T11:17:27.078Z,42.31
2022-08-24T11:19:54.977Z,42.37
2022-08-24T11:22:34.119Z,43.64
2022-08-24T11:25:07.845Z,44.72
2022-08-24T11:27:39.179Z,42.94
2022-08-24T11:30:13.242Z,43.80
2022-08-24T11:32:45.403Z,45.29
2022-08-24T11:35:22.046Z,44.54
2022-08-24T11:37:51.511Z,45.44
2022-08-24T11:40:22.291Z,46.29
2022-08-24T11:43:05.947Z,44.99
2022-08-24T11:45:41.834Z,46.17
2022-08-24T11:48:29.636Z,45.72
2022-08-24T11:51:03.007Z,45.15
2022-08-24T11:56:20.383Z,46.07
2022-08-24T11:58:58.005Z,47.40
2022-08-24T12:01:33.630Z,46.26
2022-08-24T12:04:28.329Z,47.65
2022-08-24T12:07:04.387Z,48.28
2022-08-24T12:09:52.820Z,47.21
2022-08-24T12:12:26.281Z,47.67
2022-08-24T12:15:02.205Z,48.46
2022-08-24T12:17:37.646Z,49.50
2022-08-24T12:20:22.867Z,47.63
2022-08-24T12:22:51.533Z,48.27
2022-08-24T12:25:38.875Z,48.10
2022-08-24T12:28:07.941Z,48.10
2022-08-24T12:30:35.774Z,48.97
2022-08-24T12:33:06.822Z,48.12
2022-08-24T12:35:42.807Z,48.09
2022-08-24T12:38:20.551Z,47.74
2022-08-24T12:40:58.142Z,50.25
2022-08-24T12:43:35.931Z,48.67
2022-08-24T12:46:06.594Z,48.67
2022-08-24T12:48:39.497Z,48.97
2022-08-24T12:51:22.835Z,48.84
2022-08-24T12:54:25.791Z,49.45
2022-08-24T12:57:10.146Z,49.65
2022-08-24T12:59:41.848Z,50.42
2022-08-24T13:02:29.768Z,50.74
2022-08-24T13:05:00.103Z,50.57
2022-08-24T13:07:33.241Z,51.69
2022-08-24T13:10:12.287Z,50.76
2022-08-24T13:13:08.431Z,49.79
2022-08-24T13:16:02.985Z,49.63
2022-08-24T13:18:53.987Z,49.35
2022-08-24T13:21:46.718Z,50.57
2022-08-24T13:24:44.522Z,50.37
2022-08-24T13:27:52.247Z,50.95
2022-08-24T13:30:27.071Z,50.44
2022-08-24T13:33:03.227Z,50.71
2022-08-24T13:35:57.391Z,50.08
2022-08-24T13:38:52.111Z,50.34
2022-08-24T13:41:49.530Z,50.17
2022-08-24T13:44:26.233Z,49.67
2022-08-24T13:47:05.488Z,50.08
2022-08-24T13:49:46.583Z,51.25
2022-08-24T13:52:24.867Z,50.72
2022-08-24T13:55:11.811Z,49.72
2022-08-24T13:57:44.574Z,51.85
2022-08-24T14:00:43.106Z,49.95
2022-08-24T14:03:27.361Z,49.52
2022-08-24T14:06:03.061Z,50.79
2022-08-24T14:08:41.418Z,50.75
2022-08-24T14:11:13.443Z,50.80
2022-08-24T14:13:57.596Z,51.96
2022-08-24T14:17:03.407Z,51.04
2022-08-24T14:19:41.085Z,51.59
2022-08-24T14:22:28.887Z,51.09
2022-08-24T14:25:12.701Z,51.17
2022-08-24T14:27:44.459Z,51.92
2022-08-24T14:30:46.972Z,51.41
2022-08-24T14:33:27.245Z,50.87
2022-08-24T14:36:19.250Z,50.81
2022-08-24T14:38:57.415Z,49.66
2022-08-24T14:41:49.309Z,48.97
2022-08-24T14:44:35.061Z,49.21
2022-08-24T14:47:13.889Z,49.53
2022-08-24T14:49:52.673Z,49.66
2022-08-24T14:52:51.699Z,50.64
2022-08-24T14:55:30.559Z,49.75
2022-08-24T14:58:09.989Z,50.19
2022-08-24T15:01:03.597Z,50.30
2022-08-24T15:03:51.504Z,50.51
2022-08-24T15:06:27.666Z,49.94
2022-08-24T15:09:08.402Z,51.58
2022-08-24T15:11:38.193Z,51.17
2022-08-24T15:14:09.377Z,51.89
2022-08-24T15:16:54.016Z,51.40
2022-08-24T15:19:34.655Z,50.75
2022-08-24T15:22:05.097Z,51.22
2022-08-24T15:24:40.053Z,49.67
2022-08-24T15:27:22.093Z,49.47
2022-08-24T15:29:54.111Z,49.22
2022-08-24T15:32:44.050Z,49.35
2022-08-24T15:35:26.692Z,48.27
2022-08-24T15:37:54.957Z,47.63
2022-08-24T15:40:29.482Z,46.83
2022-08-24T15:43:00.337Z,47.15
2022-08-24T15:45:28.513Z,46.02
2022-08-24T15:47:58.482Z,46.21
2022-08-24T15:50:30.195Z,46.20
2022-08-24T15:53:01.837Z,45.40
2022-08-24T15:55:34.679Z,44.90
2022-08-24T15:58:21.543Z,44.57
2022-08-24T16:01:15.573Z,44.31
2022-08-24T16:03:50.339Z,43.75
2022-08-24T16:06:25.969Z,44.27
2022-08-24T16:08:59.358Z,44.76
2022-08-24T16:11:34.881Z,45.53
2022-08-24T16:14:03.363Z,46.14
2022-08-24T16:16:36.549Z,47.28
2022-08-24T16:19:08.562Z,48.05
2022-08-24T16:21:40.560Z,49.36
2022-08-24T16:24:12.284Z,49.84
2022-08-24T16:26:55.138Z,51.63
2022-08-24T16:29:59.479Z,51.83
2022-08-24T16:32:31.432Z,52.05
2022-08-24T16:35:18.420Z,52.94
2022-08-24T16:37:48.054Z,53.26
2022-08-24T16:40:16.410Z,54.30
2022-08-24T16:42:44.570Z,54.39
2022-08-24T16:45:17.252Z,54.43
2022-08-24T16:47:47.242Z,54.91
2022-08-24T16:50:17.276Z,54.52
2022-08-24T16:52:46.937Z,54.45
2022-08-24T16:55:14.893Z,54.28
2022-08-24T16:57:43.770Z,54.26
2022-08-24T17:00:15.677Z,54.31
2022-08-24T17:02:44.450Z,54.72
2022-08-24T17:05:12.576Z,54.92
2022-08-24T17:07:40.712Z,54.76
2022-08-24T17:10:14.005Z,55.11
2022-08-24T17:12:41.782Z,55.04
2022-08-24T17:15:12.064Z,55.52
2022-08-24T17:17:40.461Z,55.82
2022-08-24T17:20:10.994Z,55.90
2022-08-24T17:22:39.577Z,56.26
2022-08-24T17:25:07.515Z,56.65
2022-08-24T17:27:36.883Z,56.76
2022-08-24T17:30:06.248Z,56.99
2022-08-24T17:32:34.436Z,57.38
2022-08-24T17:35:03.348Z,57.66
2022-08-24T17:37:31.842Z,57.98
2022-08-24T17:40:01.091Z,58.22
2022-08-24T17:42:49.686Z,58.51
2022-08-24T17:45:19.344Z,58.70
2022-08-24T17:47:47.294Z,58.93
2022-08-24T17:50:16.414Z,59.46
2022-08-24T17:52:44.384Z,59.58
2022-08-24T17:55:14.061Z,59.89
2022-08-24T17:57:44.592Z,60.17
2022-08-24T18:00:16.254Z,60.59
2022-08-24T18:02:45.619Z,60.95
2022-08-24T18:05:14.398Z,61.37
2022-08-24T18:07:55.405Z,61.74
2022-08-24T18:10:26.033Z,61.94
2022-08-24T18:12:54.596Z,62.36
2022-08-24T18:15:22.841Z,62.74
2022-08-24T18:18:06.807Z,62.83
2022-08-24T18:20:40.219Z,63.08
2022-08-24T18:23:11.540Z,63.14
2022-08-24T18:25:50.349Z,63.49
2022-08-24T18:28:21.895Z,63.60
2022-08-24T18:30:52.057Z,63.78
2022-08-24T18:33:21.788Z,64.06
2022-08-24T18:35:49.434Z,64.34
2022-08-24T18:38:18.004Z,64.62
2022-08-24T18:40:52.174Z,64.90
2022-08-24T18:43:24.052Z,65.50
2022-08-24T18:45:53.278Z,65.25
2022-08-24T18:48:22.873Z,65.51
2022-08-24T18:50:51.101Z,65.65
2022-08-24T18:53:19.646Z,65.73
2022-08-24T18:55:48.410Z,65.83
2022-08-24T18:58:16.394Z,66.13
2022-08-24T19:00:44.677Z,66.71
2022-08-24T19:03:16.571Z,66.80
2022-08-24T19:05:46.371Z,67.27
2022-08-24T19:08:14.623Z,67.42
2022-08-24T19:10:42.306Z,67.75
2022-08-24T19:13:15.324Z,67.51
2022-08-24T19:15:46.584Z,68.07
2022-08-24T19:18:16.102Z,68.19
2022-08-24T19:20:49.034Z,68.11
2022-08-24T19:23:21.560Z,68.33
2022-08-24T19:25:49.779Z,69.21
2022-08-24T19:28:18.731Z,69.21
2022-08-24T19:30:46.969Z,69.99
2022-08-24T19:33:20.364Z,70.07
2022-08-24T19:35:51.640Z,70.41
2022-08-24T19:38:23.365Z,70.25
2022-08-24T19:40:53.681Z,70.55
2022-08-24T19:43:21.530Z,71.13
2022-08-24T19:46:03.895Z,71.49
2022-08-24T19:48:33.494Z,71.99
2022-08-24T19:51:04.473Z,71.79
2022-08-24T19:53:33.914Z,71.82
2022-08-24T19:56:03.139Z,72.23
2022-08-24T19:58:41.146Z,72.12
2022-08-24T20:01:13.253Z,72.63
2022-08-24T20:03:41.705Z,72.66
2022-08-24T20:06:11.473Z,72.89
2022-08-24T20:08:40.319Z,73.30
2022-08-24T20:11:08.510Z,73.37
2022-08-24T20:13:37.137Z,73.06
2022-08-24T20:16:10.479Z,73.35
2022-08-24T20:18:39.624Z,73.10
2022-08-24T20:21:08.251Z,73.65
2022-08-24T20:23:37.861Z,73.56
2022-08-24T20:26:07.521Z,73.75
2022-08-24T20:28:40.961Z,73.83
2022-08-24T20:31:09.837Z,73.77
2022-08-24T20:33:37.902Z,73.84
2022-08-24T20:36:06.601Z,74.31
2022-08-24T20:38:37.319Z,74.31
2022-08-24T20:41:05.221Z,73.95
2022-08-24T20:43:33.228Z,73.85
2022-08-24T20:46:01.663Z,73.90
2022-08-24T20:48:32.587Z,74.09
2022-08-24T20:51:01.035Z,73.94
2022-08-24T20:53:29.102Z,74.29
2022-08-24T20:56:00.263Z,74.28
2022-08-24T20:58:27.987Z,73.91
2022-08-24T21:00:56.439Z,74.49
2022-08-24T21:03:24.233Z,74.22
2022-08-24T21:05:52.554Z,74.52
2022-08-24T21:08:20.580Z,74.55
2022-08-24T21:10:48.430Z,74.65
2022-08-24T21:13:17.435Z,75.08
2022-08-24T21:15:46.410Z,75.30
2022-08-24T21:18:14.759Z,75.05
2022-08-24T21:20:44.689Z,75.30
2022-08-24T21:23:25.984Z,75.27
2022-08-24T21:25:54.132Z,75.56
2022-08-24T21:28:23.847Z,75.60
2022-08-24T21:30:51.533Z,75.40
2022-08-24T21:33:37.066Z,75.61
2022-08-24T21:36:05.971Z,75.55
2022-08-24T21:38:35.692Z,75.39
2022-08-24T21:41:04.084Z,76.00
2022-08-24T21:43:33.944Z,75.84
2022-08-24T21:46:01.794Z,76.02
2022-08-24T21:48:30.022Z,75.93
2022-08-24T21:50:57.682Z,75.82
2022-08-24T21:53:28.545Z,75.96
2022-08-24T21:55:56.938Z,76.46
2022-08-24T21:58:26.244Z,77.02
2022-08-24T22:00:58.997Z,76.76
2022-08-24T22:03:34.722Z,77.24
2022-08-24T22:06:08.516Z,77.59
2022-08-24T22:08:36.466Z,77.49
2022-08-24T22:11:04.855Z,77.90
2022-08-24T22:13:34.087Z,78.15
2022-08-24T22:16:04.004Z,78.00
2022-08-24T22:18:32.339Z,78.14
2022-08-24T22:21:00.361Z,78.51
2022-08-24T22:23:28.047Z,78.46
2022-08-24T22:25:56.391Z,78.85
2022-08-24T22:28:24.590Z,78.89
2022-08-24T22:30:52.317Z,79.12
2022-08-24T22:33:21.383Z,79.29
2022-08-24T22:35:50.335Z,79.48
2022-08-24T22:38:18.090Z,79.60
2022-08-24T22:40:46.143Z,79.58
2022-08-24T22:43:13.876Z,79.79
2022-08-24T22:45:42.424Z,80.05
2022-08-24T22:48:10.170Z,80.02
2022-08-24T22:50:43.144Z,80.21
2022-08-24T22:53:10.811Z,80.42
2022-08-24T22:55:38.978Z,80.39
2022-08-24T22:58:06.622Z,80.62
2022-08-24T23:00:35.551Z,80.62
2022-08-24T23:03:03.351Z,80.51
2022-08-24T23:05:31.559Z,80.52
2022-08-24T23:08:00.554Z,80.76
2022-08-24T23:10:29.024Z,80.57
2022-08-24T23:12:56.678Z,80.45
2022-08-24T23:15:25.193Z,80.43
2022-08-24T23:17:53.975Z,80.35
2022-08-24T23:20:21.035Z,80.25
2022-08-24T23:22:49.916Z,80.19
2022-08-24T23:25:19.662Z,80.40
2022-08-24T23:27:50.041Z,80.71
2022-08-24T23:30:18.097Z,80.84
2022-08-24T23:32:46.183Z,81.03
2022-08-24T23:35:13.901Z,81.37
2022-08-24T23:37:42.161Z,81.31
2022-08-24T23:40:11.379Z,81.28
2022-08-24T23:42:40.435Z,81.46
2022-08-24T23:45:11.832Z,81.45
2022-08-24T23:47:40.610Z,81.39
2022-08-24T23:50:10.889Z,81.51
2022-08-24T23:52:39.337Z,81.53
2022-08-24T23:55:20.921Z,81.54
2022-08-24T23:57:51.473Z,81.41
